createdAt,value
2022-10-13T00:01:12.065Z,4.18
2022-10-13T00:03:40.473Z,3.65
2022-10-13T00:06:09.829Z,3.75
2022-10-13T00:08:37.349Z,3.97
2022-10-13T00:11:15.274Z,3.75
2022-10-13T00:13:42.912Z,3.85
2022-10-13T00:16:11.520Z,3.72
2022-10-13T00:18:38.592Z,3.42
2022-10-13T00:21:10.305Z,3.58
2022-10-13T00:23:38.214Z,4.00
2022-10-13T00:26:07.103Z,3.50
2022-10-13T00:28:33.867Z,4.03
2022-10-13T00:31:00.771Z,3.20
2022-10-13T00:33:27.774Z,3.80
2022-10-13T00:35:54.497Z,3.53
2022-10-13T00:38:22.332Z,3.35
2022-10-13T00:40:50.750Z,3.70
2022-10-13T00:43:20.390Z,3.70
2022-10-13T00:45:50.627Z,3.72
2022-10-13T00:48:25.227Z,2.97
2022-10-13T00:50:52.830Z,4.10
2022-10-13T00:53:23.391Z,3.50
2022-10-13T00:55:52.402Z,3.45
2022-10-13T00:58:23.123Z,3.92
2022-10-13T01:00:52.222Z,3.88
2022-10-13T01:03:20.498Z,3.60
2022-10-13T01:05:48.432Z,3.70
2022-10-13T01:08:16.229Z,3.70
2022-10-13T01:11:01.675Z,3.60
2022-10-13T01:13:44.809Z,3.47
2022-10-13T01:16:29.820Z,3.60
2022-10-13T01:19:16.008Z,3.92
2022-10-13T01:22:13.528Z,3.70
2022-10-13T01:25:09.316Z,4.00
2022-10-13T01:27:47.963Z,4.00
2022-10-13T01:30:15.899Z,3.78
2022-10-13T01:32:48.321Z,4.40
2022-10-13T01:35:39.674Z,3.78
2022-10-13T01:38:35.708Z,3.70
2022-10-13T01:41:23.941Z,3.45
2022-10-13T01:44:02.866Z,3.88
2022-10-13T01:46:36.747Z,4.03
2022-10-13T01:49:09.901Z,4.47
2022-10-13T01:51:37.154Z,3.42
2022-10-13T01:54:03.980Z,3.72
2022-10-13T01:56:30.792Z,4.18
2022-10-13T01:58:59.972Z,4.25
2022-10-13T02:01:51.363Z,3.70
2022-10-13T02:04:37.871Z,3.58
2022-10-13T02:07:34.541Z,3.67
2022-10-13T02:10:22.828Z,3.80
2022-10-13T02:12:59.501Z,3.90
2022-10-13T02:15:45.106Z,3.83
2022-10-13T02:18:18.476Z,3.57
2022-10-13T02:20:46.396Z,4.15
2022-10-13T02:23:16.350Z,3.65
2022-10-13T02:25:44.369Z,4.05
2022-10-13T02:28:14.262Z,3.90
2022-10-13T02:30:45.565Z,3.95
2022-10-13T02:33:13.683Z,3.97
2022-10-13T02:35:41.624Z,4.38
2022-10-13T02:38:08.818Z,4.20
2022-10-13T02:40:35.572Z,4.82
2022-10-13T02:43:39.846Z,4.10
2022-10-13T02:46:06.556Z,4.32
2022-10-13T02:48:33.336Z,4.95
2022-10-13T02:51:00.053Z,3.95
2022-10-13T02:53:26.841Z,3.97
2022-10-13T02:55:55.495Z,4.22
2022-10-13T02:58:25.282Z,4.07
2022-10-13T03:00:52.116Z,4.90
2022-10-13T03:03:19.072Z,3.65
2022-10-13T03:05:47.816Z,4.45
2022-10-13T03:08:16.319Z,4.05
2022-10-13T03:10:43.263Z,4.65
2022-10-13T03:13:10.051Z,4.55
2022-10-13T03:15:36.791Z,4.38
2022-10-13T03:18:06.385Z,4.65
2022-10-13T03:20:33.093Z,4.38
2022-10-13T03:22:59.841Z,4.35
2022-10-13T03:25:26.586Z,4.80
2022-10-13T03:27:55.711Z,4.30
2022-10-13T03:30:22.458Z,4.18
2022-10-13T03:32:49.309Z,3.85
2022-10-13T03:35:16.247Z,4.63
2022-10-13T03:37:43.039Z,3.90
2022-10-13T03:40:10.683Z,4.25
2022-10-13T03:42:39.503Z,5.00
2022-10-13T03:45:07.162Z,4.80
2022-10-13T03:47:36.819Z,5.00
2022-10-13T03:50:05.537Z,5.00
2022-10-13T03:52:32.591Z,4.78
2022-10-13T03:54:59.424Z,6.03
2022-10-13T03:57:26.221Z,5.93
2022-10-13T03:59:52.962Z,5.28
2022-10-13T04:02:19.989Z,5.53
2022-10-13T04:04:48.857Z,5.47
2022-10-13T04:07:15.721Z,5.43
2022-10-13T04:09:42.513Z,4.82
2022-10-13T04:12:09.248Z,5.88
2022-10-13T04:14:36.030Z,5.85
2022-10-13T04:17:08.023Z,5.55
2022-10-13T04:19:34.815Z,6.68
2022-10-13T04:22:05.358Z,5.93
2022-10-13T04:24:32.171Z,5.55
2022-10-13T04:26:58.921Z,6.07
2022-10-13T04:29:25.689Z,6.40
2022-10-13T04:31:53.600Z,6.03
2022-10-13T04:34:20.764Z,5.85
2022-10-13T04:36:50.517Z,5.55
2022-10-13T04:39:18.315Z,6.50
2022-10-13T04:41:45.714Z,6.57
2022-10-13T04:44:12.492Z,6.60
2022-10-13T04:46:39.328Z,6.03
2022-10-13T04:49:06.090Z,6.00
2022-10-13T04:51:34.485Z,6.18
2022-10-13T04:54:05.546Z,6.40
2022-10-13T04:56:32.418Z,6.97
2022-10-13T04:59:05.229Z,6.45
2022-10-13T05:01:33.135Z,5.55
2022-10-13T05:04:02.552Z,6.40
2022-10-13T05:06:53.252Z,6.78
2022-10-13T05:09:24.846Z,6.50
2022-10-13T05:11:51.875Z,6.30
2022-10-13T05:14:18.742Z,6.60
2022-10-13T05:16:45.510Z,6.78
2022-10-13T05:19:13.593Z,7.40
2022-10-13T05:21:40.559Z,6.13
2022-10-13T05:24:13.104Z,7.43
2022-10-13T05:26:40.958Z,7.25
2022-10-13T05:29:08.063Z,6.70
2022-10-13T05:31:36.112Z,7.50
2022-10-13T05:34:03.290Z,7.05
2022-10-13T05:36:32.747Z,6.97
2022-10-13T05:39:02.494Z,7.03
2022-10-13T05:41:30.420Z,7.50
2022-10-13T05:44:00.449Z,7.82
2022-10-13T05:46:27.695Z,7.63
2022-10-13T05:48:54.613Z,7.75
2022-10-13T05:51:26.585Z,8.30
2022-10-13T05:53:59.601Z,7.47
2022-10-13T05:56:32.050Z,8.02
2022-10-13T05:59:02.966Z,7.93
2022-10-13T06:01:32.659Z,8.55
2022-10-13T06:04:04.314Z,8.43
2022-10-13T06:06:31.791Z,7.65
2022-10-13T06:09:00.006Z,8.40
2022-10-13T06:11:26.978Z,8.45
2022-10-13T06:13:53.751Z,9.63
2022-10-13T06:16:20.502Z,9.18
2022-10-13T06:18:47.849Z,8.43
2022-10-13T06:21:14.586Z,7.68
2022-10-13T06:23:41.337Z,8.30
2022-10-13T06:26:09.062Z,8.18
2022-10-13T06:28:37.364Z,7.78
2022-10-13T06:31:06.563Z,8.60
2022-10-13T06:33:33.995Z,7.30
2022-10-13T06:36:05.516Z,8.35
2022-10-13T06:38:33.315Z,8.30
2022-10-13T06:41:01.868Z,8.48
2022-10-13T06:43:39.659Z,8.18
2022-10-13T06:46:10.977Z,8.32
2022-10-13T06:48:38.088Z,7.32
2022-10-13T06:51:08.285Z,8.00
2022-10-13T06:53:35.295Z,8.00
2022-10-13T06:56:05.177Z,8.40
2022-10-13T06:58:32.020Z,8.02
2022-10-13T07:00:58.840Z,7.90
2022-10-13T07:03:26.074Z,8.35
2022-10-13T07:05:53.300Z,8.50
2022-10-13T07:08:20.897Z,8.02
2022-10-13T07:10:47.929Z,8.20
2022-10-13T07:13:14.702Z,8.27
2022-10-13T07:15:41.734Z,8.82
2022-10-13T07:18:08.646Z,7.70
2022-10-13T07:20:35.823Z,8.20
2022-10-13T07:23:02.753Z,8.65
2022-10-13T07:25:29.616Z,9.18
2022-10-13T07:27:58.203Z,7.72
2022-10-13T07:30:25.434Z,8.02
2022-10-13T07:32:52.333Z,8.40
2022-10-13T07:35:19.891Z,8.55
2022-10-13T07:37:47.134Z,8.77
2022-10-13T07:40:13.964Z,8.27
2022-10-13T07:42:40.804Z,9.18
2022-10-13T07:45:08.252Z,8.90
2022-10-13T07:47:35.093Z,9.27
2022-10-13T07:50:02.035Z,8.63
2022-10-13T07:52:28.805Z,8.38
2022-10-13T07:54:56.007Z,8.60
2022-10-13T07:57:26.449Z,8.88
2022-10-13T07:59:53.632Z,10.30
2022-10-13T08:02:20.818Z,9.23
2022-10-13T08:04:48.736Z,10.15
2022-10-13T08:07:16.889Z,9.27
2022-10-13T08:09:44.608Z,9.90
2022-10-13T08:12:11.963Z,10.00
2022-10-13T08:14:38.828Z,9.43
2022-10-13T08:17:05.783Z,9.48
2022-10-13T08:19:32.667Z,9.50
2022-10-13T08:22:00.314Z,10.55
2022-10-13T08:24:28.115Z,9.65
2022-10-13T08:26:55.057Z,10.00
2022-10-13T08:29:23.368Z,10.25
2022-10-13T08:31:52.583Z,10.48
2022-10-13T08:34:19.956Z,10.40
2022-10-13T08:36:47.341Z,9.73
2022-10-13T08:39:14.449Z,10.18
2022-10-13T08:41:46.670Z,9.90
2022-10-13T08:47:39.852Z,10.13
2022-10-13T08:50:29.875Z,9.93
2022-10-13T08:53:01.570Z,10.43
2022-10-13T08:55:34.736Z,10.30
2022-10-13T08:58:06.075Z,9.90
2022-10-13T09:00:32.931Z,10.48
2022-10-13T09:03:19.166Z,10.38
2022-10-13T09:06:02.426Z,10.35
2022-10-13T09:08:34.436Z,10.00
2022-10-13T09:11:02.878Z,10.55
2022-10-13T09:13:29.689Z,9.73
2022-10-13T09:15:58.373Z,10.82
2022-10-13T09:18:31.714Z,10.73
2022-10-13T09:21:21.882Z,11.00
2022-10-13T09:23:54.331Z,10.13
2022-10-13T09:26:25.133Z,10.07
2022-10-13T09:28:52.948Z,9.90
2022-10-13T09:31:28.825Z,10.10
2022-10-13T09:34:18.838Z,9.85
2022-10-13T09:37:03.490Z,9.50
2022-10-13T09:39:31.550Z,9.80
2022-10-13T09:42:19.842Z,9.25
2022-10-13T09:44:48.499Z,9.50
2022-10-13T09:47:21.607Z,9.32
2022-10-13T09:50:06.403Z,10.23
2022-10-13T09:52:34.918Z,9.23
2022-10-13T09:55:01.971Z,8.98
2022-10-13T09:57:45.843Z,9.27
2022-10-13T10:00:27.589Z,9.35
2022-10-13T10:03:12.088Z,9.13
2022-10-13T10:05:44.655Z,8.90
2022-10-13T10:08:28.895Z,10.43
2022-10-13T10:11:12.610Z,8.65
2022-10-13T10:13:39.535Z,9.95
2022-10-13T10:16:13.560Z,8.88
2022-10-13T10:19:03.618Z,8.88
2022-10-13T10:21:41.804Z,9.10
2022-10-13T10:24:15.604Z,9.23
2022-10-13T10:26:56.033Z,8.95
2022-10-13T10:29:29.354Z,8.98
2022-10-13T10:32:18.301Z,9.27
2022-10-13T10:35:12.560Z,9.32
2022-10-13T10:38:10.093Z,8.77
2022-10-13T10:40:55.882Z,9.57
2022-10-13T10:43:32.561Z,9.82
2022-10-13T10:46:00.365Z,9.85
2022-10-13T10:48:38.349Z,9.38
2022-10-13T10:51:09.823Z,10.07
2022-10-13T10:53:58.153Z,10.20
2022-10-13T10:56:37.359Z,10.85
2022-10-13T10:59:40.146Z,10.38
2022-10-13T11:02:06.886Z,9.63
2022-10-13T11:04:48.605Z,9.23
2022-10-13T11:07:38.222Z,9.93
2022-10-13T11:10:14.086Z,14.80
2022-10-13T11:12:52.804Z,8.20
2022-10-13T11:15:25.224Z,11.43
2022-10-13T11:17:52.486Z,9.60
2022-10-13T11:20:22.188Z,9.35
2022-10-13T11:22:57.994Z,8.70
2022-10-13T11:25:44.735Z,8.52
2022-10-13T11:28:20.939Z,9.02
2022-10-13T11:30:57.376Z,8.10
2022-10-13T11:33:39.275Z,9.32
2022-10-13T11:36:29.238Z,8.55
2022-10-13T11:39:25.626Z,8.13
2022-10-13T11:42:23.080Z,9.45
2022-10-13T11:44:59.840Z,9.38
2022-10-13T11:48:01.410Z,8.45
2022-10-13T11:50:34.217Z,9.85
2022-10-13T11:53:28.058Z,8.68
2022-10-13T11:56:01.513Z,8.98
2022-10-13T11:58:33.200Z,8.85
2022-10-13T12:01:03.175Z,8.75
2022-10-13T12:03:36.833Z,8.55
2022-10-13T12:06:26.744Z,9.27
2022-10-13T12:08:53.596Z,8.75
2022-10-13T12:11:33.061Z,9.20
2022-10-13T12:14:01.296Z,8.65
2022-10-13T12:16:29.646Z,8.27
2022-10-13T12:19:19.894Z,7.38
2022-10-13T12:21:55.678Z,7.88
2022-10-13T12:24:28.147Z,7.95
2022-10-13T12:26:56.096Z,7.80
2022-10-13T12:29:26.800Z,7.50
2022-10-13T12:31:54.461Z,7.75
2022-10-13T12:34:29.034Z,7.25
2022-10-13T12:37:05.549Z,7.25
2022-10-13T12:39:35.087Z,7.78
2022-10-13T12:42:03.969Z,7.65
2022-10-13T12:44:32.303Z,7.47
2022-10-13T12:47:03.893Z,6.22
2022-10-13T12:49:35.610Z,7.35
2022-10-13T12:52:19.684Z,6.68
2022-10-13T12:54:51.170Z,6.32
2022-10-13T12:57:26.020Z,6.60
2022-10-13T12:59:53.132Z,6.22
2022-10-13T13:02:32.514Z,6.10
2022-10-13T13:04:59.628Z,5.97
2022-10-13T13:07:37.434Z,6.32
2022-10-13T13:10:14.978Z,5.90
2022-10-13T13:12:42.483Z,5.60
2022-10-13T13:15:25.681Z,6.20
2022-10-13T13:17:58.183Z,5.65
2022-10-13T13:20:31.767Z,5.93
2022-10-13T13:22:59.480Z,6.40
2022-10-13T13:25:26.783Z,6.15
2022-10-13T13:27:53.698Z,5.78
2022-10-13T13:30:22.655Z,5.57
2022-10-13T13:32:50.466Z,5.90
2022-10-13T13:35:17.849Z,5.70
2022-10-13T13:37:50.971Z,5.43
2022-10-13T13:40:21.047Z,4.97
2022-10-13T13:42:47.920Z,5.25
2022-10-13T13:45:16.072Z,4.70
2022-10-13T13:47:43.119Z,4.18
2022-10-13T13:50:20.809Z,4.60
2022-10-13T13:52:56.566Z,5.13
2022-10-13T13:55:23.781Z,5.32
2022-10-13T13:57:50.567Z,5.05
2022-10-13T14:00:18.055Z,4.65
2022-10-13T14:02:49.774Z,4.95
2022-10-13T14:05:17.665Z,4.78
2022-10-13T14:07:44.397Z,4.40
2022-10-13T14:10:11.507Z,3.88
2022-10-13T14:12:38.534Z,3.95
2022-10-13T14:15:05.762Z,4.45
2022-10-13T14:17:32.538Z,4.22
2022-10-13T14:20:00.535Z,4.20
2022-10-13T14:22:27.629Z,4.70
2022-10-13T14:24:54.467Z,4.28
2022-10-13T14:27:21.338Z,4.22
2022-10-13T14:29:48.106Z,4.43
2022-10-13T14:32:15.796Z,3.70
2022-10-13T14:34:42.575Z,4.28
2022-10-13T14:37:09.400Z,4.72
2022-10-13T14:39:36.204Z,4.72
2022-10-13T14:42:02.983Z,4.97
2022-10-13T14:44:29.757Z,5.85
2022-10-13T14:46:56.559Z,4.75
2022-10-13T14:49:24.185Z,3.90
2022-10-13T14:51:50.917Z,4.05
2022-10-13T14:54:18.062Z,4.60
2022-10-13T14:56:44.935Z,4.13
2022-10-13T14:59:12.400Z,4.15
2022-10-13T15:01:41.657Z,3.70
2022-10-13T15:04:08.834Z,4.00
2022-10-13T15:06:39.269Z,3.95
2022-10-13T15:11:39.062Z,3.95
2022-10-13T15:14:06.068Z,3.80
2022-10-13T15:16:33.665Z,3.80
2022-10-13T15:19:00.475Z,3.45
2022-10-13T15:21:27.324Z,4.03
2022-10-13T15:23:54.099Z,4.05
2022-10-13T15:26:21.365Z,3.60
2022-10-13T15:28:50.795Z,4.10
2022-10-13T15:31:19.613Z,4.07
2022-10-13T15:33:48.151Z,4.28
2022-10-13T15:36:15.145Z,3.58
2022-10-13T15:38:41.968Z,3.92
2022-10-13T15:41:10.762Z,4.13
2022-10-13T15:43:38.475Z,4.43
2022-10-13T15:46:08.224Z,4.28
2022-10-13T15:48:35.739Z,4.60
2022-10-13T15:51:08.529Z,4.60
2022-10-13T15:53:35.383Z,4.20
2022-10-13T15:56:02.889Z,4.13
2022-10-13T15:58:29.670Z,3.78
2022-10-13T16:00:56.549Z,3.92
2022-10-13T16:03:24.458Z,4.47
2022-10-13T16:05:51.275Z,4.18
2022-10-13T16:08:18.006Z,4.60
2022-10-13T16:10:44.820Z,4.97
2022-10-13T16:13:15.173Z,4.40
2022-10-13T16:15:43.011Z,5.18
2022-10-13T16:18:09.757Z,4.95
2022-10-13T16:20:38.753Z,4.78
2022-10-13T16:23:05.772Z,4.93
2022-10-13T16:25:32.589Z,4.93
2022-10-13T16:28:00.733Z,4.97
2022-10-13T16:30:30.389Z,4.88
2022-10-13T16:32:57.816Z,4.57
2022-10-13T16:35:24.621Z,5.10
2022-10-13T16:37:51.353Z,5.10
2022-10-13T16:40:18.103Z,5.90
2022-10-13T16:42:45.420Z,5.43
2022-10-13T16:45:13.190Z,4.93
2022-10-13T16:47:39.973Z,6.15
2022-10-13T16:50:09.690Z,5.75
2022-10-13T16:52:37.772Z,6.90
2022-10-13T16:55:06.061Z,6.72
2022-10-13T16:57:33.068Z,5.65
2022-10-13T17:00:00.209Z,6.60
2022-10-13T17:02:28.714Z,5.72
2022-10-13T17:04:55.538Z,6.30
2022-10-13T17:07:22.757Z,6.18
2022-10-13T17:09:50.051Z,6.70
2022-10-13T17:12:16.880Z,6.47
2022-10-13T17:14:44.473Z,6.32
2022-10-13T17:17:11.216Z,5.82
2022-10-13T17:19:38.030Z,6.85
2022-10-13T17:22:04.789Z,5.45
2022-10-13T17:24:32.381Z,6.18
2022-10-13T17:26:59.140Z,6.10
2022-10-13T17:29:25.860Z,6.28
2022-10-13T17:31:53.434Z,5.50
2022-10-13T17:34:21.946Z,6.05
2022-10-13T17:36:51.277Z,7.03
2022-10-13T17:39:18.197Z,6.72
2022-10-13T17:41:44.950Z,6.43
2022-10-13T17:44:11.967Z,6.53
2022-10-13T17:46:39.774Z,6.30
2022-10-13T17:49:09.570Z,6.35
2022-10-13T17:51:36.379Z,5.20
2022-10-13T17:54:03.917Z,6.05
2022-10-13T17:56:30.690Z,7.13
2022-10-13T17:58:57.484Z,6.28
2022-10-13T18:01:26.871Z,5.38
2022-10-13T18:04:01.314Z,6.13
2022-10-13T18:06:36.706Z,6.05
2022-10-13T18:09:07.416Z,6.30
2022-10-13T18:11:35.243Z,6.55
2022-10-13T18:14:02.059Z,5.65
2022-10-13T18:16:28.837Z,5.78
2022-10-13T18:18:55.895Z,5.57
2022-10-13T18:21:26.205Z,5.32
2022-10-13T18:23:57.973Z,6.15
2022-10-13T18:26:25.983Z,5.60
2022-10-13T18:28:53.212Z,4.80
2022-10-13T18:31:23.465Z,4.95
2022-10-13T18:33:59.338Z,5.20
2022-10-13T18:36:31.159Z,5.38
2022-10-13T18:39:04.428Z,5.25
2022-10-13T18:41:32.314Z,5.75
2022-10-13T18:43:59.108Z,5.05
2022-10-13T18:46:26.273Z,5.68
2022-10-13T18:48:53.077Z,5.78
2022-10-13T18:51:20.053Z,5.90
2022-10-13T18:53:48.859Z,5.50
2022-10-13T18:56:25.993Z,5.93
2022-10-13T18:58:59.316Z,5.70
2022-10-13T19:01:28.543Z,5.90
2022-10-13T19:03:55.676Z,5.97
2022-10-13T19:06:27.158Z,5.95
2022-10-13T19:09:03.486Z,5.75
2022-10-13T19:11:31.771Z,6.10
2022-10-13T19:13:59.700Z,6.30
2022-10-13T19:16:28.308Z,6.88
2022-10-13T19:18:55.457Z,6.28
2022-10-13T19:21:23.002Z,7.20
2022-10-13T19:23:50.306Z,6.90
2022-10-13T19:26:26.704Z,6.97
2022-10-13T19:28:56.762Z,7.25
2022-10-13T19:31:26.794Z,7.57
2022-10-13T19:33:54.785Z,8.02
2022-10-13T19:36:27.915Z,8.70
2022-10-13T19:38:55.554Z,8.73
2022-10-13T19:41:23.196Z,8.75
2022-10-13T19:43:50.644Z,9.27
2022-10-13T19:46:17.721Z,9.80
2022-10-13T19:48:44.893Z,10.10
2022-10-13T19:51:13.058Z,11.07
2022-10-13T19:53:40.639Z,10.63
2022-10-13T19:56:07.650Z,10.77
2022-10-13T19:58:35.478Z,10.43
2022-10-13T20:01:05.328Z,9.98
2022-10-13T20:03:32.201Z,11.07
2022-10-13T20:05:59.070Z,11.25
2022-10-13T20:08:25.986Z,12.07
2022-10-13T20:10:52.796Z,11.82
2022-10-13T20:13:19.625Z,11.55
2022-10-13T20:15:47.835Z,11.80
2022-10-13T20:18:14.656Z,11.18
2022-10-13T20:20:42.001Z,10.45
2022-10-13T20:23:09.277Z,10.77
2022-10-13T20:25:38.849Z,12.13
2022-10-13T20:28:06.290Z,11.73
2022-10-13T20:30:33.468Z,10.73
2022-10-13T20:33:00.809Z,12.15
2022-10-13T20:35:27.636Z,12.68
2022-10-13T20:37:54.811Z,11.45
2022-10-13T20:40:21.854Z,11.15
2022-10-13T20:42:52.762Z,12.35
2022-10-13T20:45:20.199Z,12.15
2022-10-13T20:47:48.624Z,12.55
2022-10-13T20:50:15.673Z,13.05
2022-10-13T20:52:42.534Z,12.30
2022-10-13T20:55:09.863Z,13.00
2022-10-13T20:57:36.943Z,12.73
2022-10-13T21:00:05.699Z,12.73
2022-10-13T21:02:32.551Z,13.02
2022-10-13T21:04:59.296Z,12.77
2022-10-13T21:07:28.330Z,13.13
2022-10-13T21:09:55.201Z,12.70
2022-10-13T21:12:21.976Z,12.98
2022-10-13T21:14:48.771Z,11.75
2022-10-13T21:17:15.552Z,12.23
2022-10-13T21:19:42.286Z,10.70
2022-10-13T21:22:09.085Z,12.32
2022-10-13T21:24:35.896Z,12.55
2022-10-13T21:27:02.930Z,11.40
2022-10-13T21:29:29.918Z,12.00
2022-10-13T21:31:56.669Z,11.85
2022-10-13T21:34:23.413Z,11.00
2022-10-13T21:36:50.165Z,12.05
2022-10-13T21:39:16.947Z,11.07
2022-10-13T21:41:43.806Z,11.73
2022-10-13T21:44:14.023Z,11.70
2022-10-13T21:46:41.015Z,12.80
2022-10-13T21:49:07.814Z,12.00
2022-10-13T21:51:40.081Z,11.98
2022-10-13T21:54:13.323Z,12.27
2022-10-13T21:56:40.851Z,10.95
2022-10-13T21:59:08.825Z,11.73
2022-10-13T22:01:35.776Z,11.65
2022-10-13T22:04:09.753Z,11.50
2022-10-13T22:06:36.483Z,11.75
2022-10-13T22:09:05.740Z,11.90
2022-10-13T22:11:34.616Z,10.45
2022-10-13T22:14:07.840Z,11.55
2022-10-13T22:16:38.599Z,11.80
2022-10-13T22:19:06.199Z,11.93
2022-10-13T22:21:39.124Z,12.65
2022-10-13T22:24:07.972Z,12.98
2022-10-13T22:26:36.506Z,12.63
2022-10-13T22:29:05.126Z,12.13
2022-10-13T22:31:33.269Z,12.32
2022-10-13T22:34:05.951Z,13.25
2022-10-13T22:36:32.791Z,12.27
2022-10-13T22:39:02.803Z,12.65
2022-10-13T22:41:30.666Z,13.68
2022-10-13T22:43:58.974Z,13.80
2022-10-13T22:46:32.024Z,13.93
2022-10-13T22:48:59.202Z,13.57
2022-10-13T22:51:27.708Z,13.85
2022-10-13T22:53:55.626Z,13.88
2022-10-13T22:56:25.898Z,14.00
2022-10-13T22:59:00.745Z,16.00
2022-10-13T23:01:28.211Z,16.20
2022-10-13T23:03:56.635Z,16.13
2022-10-13T23:06:27.235Z,15.88
2022-10-13T23:08:54.128Z,16.45
2022-10-13T23:11:20.915Z,16.90
2022-10-13T23:13:48.111Z,17.20
2022-10-13T23:16:23.227Z,16.35
2022-10-13T23:18:50.234Z,17.20
2022-10-13T23:21:26.175Z,17.05
2022-10-13T23:23:58.497Z,16.65
2022-10-13T23:26:26.146Z,16.77
2022-10-13T23:28:54.784Z,16.90
2022-10-13T23:31:21.720Z,17.10
2022-10-13T23:33:48.653Z,15.95
2022-10-13T23:36:18.570Z,16.75
2022-10-13T23:38:47.640Z,16.42
2022-10-13T23:41:16.065Z,16.75
2022-10-13T23:43:43.363Z,18.58
2022-10-13T23:46:13.554Z,16.58
2022-10-13T23:48:40.736Z,16.98
2022-10-13T23:51:14.231Z,14.73
2022-10-13T23:53:41.446Z,17.75
2022-10-13T23:56:09.614Z,17.08
2022-10-13T23:58:37.541Z,17.33
